createdAt,value
2018-11-05T00:00:36.169Z,93.10
2018-11-05T00:03:05.140Z,93.20
2018-11-05T00:05:33.070Z,93.20
2018-11-05T00:08:00.930Z,93.00
2018-11-05T00:10:28.730Z,92.80
2018-11-05T00:12:56.538Z,92.80
2018-11-05T00:15:24.589Z,92.70
2018-11-05T00:17:52.435Z,92.70
2018-11-05T00:20:20.275Z,92.70
2018-11-05T00:22:52.318Z,92.50
2018-11-05T00:25:20.113Z,92.90
2018-11-05T00:27:47.916Z,92.20
2018-11-05T00:30:15.696Z,92.30
2018-11-05T00:32:43.850Z,92.40
2018-11-05T00:35:11.897Z,92.50
2018-11-05T00:37:39.785Z,92.50
2018-11-05T00:40:11.041Z,92.50
2018-11-05T00:42:39.013Z,92.80
2018-11-05T00:45:07.820Z,93.00
2018-11-05T00:47:35.656Z,93.10
2018-11-05T00:50:05.215Z,93.20
2018-11-05T00:52:32.974Z,93.40
2018-11-05T00:55:00.826Z,93.70
2018-11-05T00:57:28.602Z,93.80
2018-11-05T00:59:56.401Z,93.90
2018-11-05T01:02:24.157Z,93.90
2018-11-05T01:04:51.928Z,94.10
2018-11-05T01:07:19.684Z,93.00
2018-11-05T01:09:47.480Z,92.70
2018-11-05T01:12:15.257Z,92.90
2018-11-05T01:14:43.039Z,93.00
2018-11-05T01:17:10.804Z,93.10
2018-11-05T01:19:38.609Z,93.10
2018-11-05T01:22:06.401Z,93.20
2018-11-05T01:24:34.211Z,92.90
2018-11-05T01:27:02.034Z,92.70
2018-11-05T01:29:29.911Z,92.80
2018-11-05T01:31:57.664Z,93.00
2018-11-05T01:34:25.440Z,93.10
2018-11-05T01:36:53.313Z,93.30
2018-11-05T01:39:21.080Z,93.30
2018-11-05T01:41:48.852Z,93.50
2018-11-05T01:44:16.626Z,93.70
2018-11-05T01:46:44.409Z,93.80
2018-11-05T01:49:12.153Z,93.70
2018-11-05T01:51:39.936Z,93.60
2018-11-05T01:54:07.737Z,93.80
2018-11-05T01:56:35.529Z,94.00
2018-11-05T01:59:03.684Z,94.30
2018-11-05T02:01:31.476Z,94.30
2018-11-05T02:03:59.681Z,94.40
2018-11-05T02:06:27.444Z,94.80
2018-11-05T02:08:55.223Z,94.80
2018-11-05T02:11:23.045Z,94.60
2018-11-05T02:13:50.808Z,94.70
2018-11-05T02:16:18.608Z,94.60
2018-11-05T02:18:46.369Z,94.40
2018-11-05T02:21:14.388Z,94.60
2018-11-05T02:23:42.257Z,94.70
2018-11-05T02:26:10.029Z,94.90
2018-11-05T02:28:37.916Z,95.00
2018-11-05T02:31:05.765Z,95.20
2018-11-05T02:33:33.729Z,95.30
2018-11-05T02:36:01.517Z,95.30
2018-11-05T02:38:29.297Z,95.20
2018-11-05T02:40:57.068Z,95.20
2018-11-05T02:43:25.715Z,95.30
2018-11-05T02:45:53.473Z,95.20
2018-11-05T02:48:21.230Z,95.20
2018-11-05T02:50:49.023Z,95.40
2018-11-05T02:53:16.876Z,95.60
2018-11-05T02:55:44.641Z,95.60
2018-11-05T02:58:12.420Z,95.60
2018-11-05T03:00:40.234Z,96.30
2018-11-05T03:03:08.210Z,96.00
2018-11-05T03:05:36.013Z,96.00
2018-11-05T03:08:03.824Z,96.20
2018-11-05T03:10:31.617Z,96.40
2018-11-05T03:12:59.395Z,96.70
2018-11-05T03:15:27.149Z,96.30
2018-11-05T03:17:54.916Z,96.30
2018-11-05T03:20:22.694Z,96.20
2018-11-05T03:22:50.477Z,96.10
2018-11-05T03:25:18.237Z,95.90
2018-11-05T03:27:46.064Z,96.00
2018-11-05T03:30:15.324Z,95.80
2018-11-05T03:32:43.101Z,95.70
2018-11-05T03:35:11.997Z,95.50
2018-11-05T03:37:40.881Z,95.40
2018-11-05T03:40:09.524Z,95.30
2018-11-05T03:42:37.721Z,95.00
2018-11-05T03:45:06.385Z,95.10
2018-11-05T03:47:34.169Z,94.90
2018-11-05T03:50:01.939Z,95.00
2018-11-05T03:52:29.755Z,95.00
2018-11-05T03:54:57.557Z,94.80
2018-11-05T03:57:25.668Z,94.70
2018-11-05T03:59:53.613Z,94.60
2018-11-05T04:02:21.457Z,94.80
2018-11-05T04:04:49.233Z,94.80
2018-11-05T04:07:17.197Z,94.80
2018-11-05T04:09:44.989Z,94.70
2018-11-05T04:12:12.725Z,94.50
2018-11-05T04:14:40.533Z,94.60
2018-11-05T04:17:08.316Z,94.50
2018-11-05T04:19:36.089Z,94.60
2018-11-05T04:22:03.864Z,94.60
2018-11-05T04:24:31.629Z,94.70
2018-11-05T04:27:00.656Z,94.80
2018-11-05T04:29:28.444Z,94.80
2018-11-05T04:31:56.266Z,94.70
2018-11-05T04:34:24.137Z,94.80
2018-11-05T04:36:51.954Z,94.80
2018-11-05T04:39:19.793Z,94.70
2018-11-05T04:41:47.629Z,94.80
2018-11-05T04:44:15.429Z,94.80
2018-11-05T04:46:43.172Z,94.80
2018-11-05T04:49:11.484Z,95.00
2018-11-05T04:51:39.317Z,95.00
2018-11-05T04:54:07.434Z,95.00
2018-11-05T04:56:35.253Z,95.10
2018-11-05T04:59:03.049Z,95.30
2018-11-05T05:01:31.049Z,95.30
2018-11-05T05:03:59.569Z,95.30
2018-11-05T05:06:27.396Z,95.50
2018-11-05T05:08:55.285Z,95.50
2018-11-05T05:11:23.183Z,95.30
2018-11-05T05:13:51.299Z,95.50
2018-11-05T05:16:19.158Z,95.60
2018-11-05T05:18:47.252Z,95.60
2018-11-05T05:21:15.041Z,95.60
2018-11-05T05:23:42.841Z,95.40
2018-11-05T05:26:10.641Z,95.30
2018-11-05T05:28:38.432Z,95.30
2018-11-05T05:31:06.692Z,95.20
2018-11-05T05:33:34.585Z,95.30
2018-11-05T05:36:02.374Z,95.30
2018-11-05T05:38:30.195Z,95.20
2018-11-05T05:40:58.083Z,95.10
2018-11-05T05:43:25.941Z,95.00
2018-11-05T05:45:53.787Z,94.80
2018-11-05T05:48:21.728Z,94.80
2018-11-05T05:50:49.554Z,94.90
2018-11-05T05:53:17.309Z,95.10
2018-11-05T05:55:45.309Z,95.20
2018-11-05T05:58:13.629Z,95.20
2018-11-05T06:00:41.518Z,95.30
2018-11-05T06:03:09.333Z,95.10
2018-11-05T06:05:37.213Z,95.10
2018-11-05T06:08:05.306Z,95.20
2018-11-05T06:10:33.121Z,95.20
2018-11-05T06:13:00.947Z,95.30
2018-11-05T06:15:28.857Z,95.40
2018-11-05T06:17:56.692Z,96.00
2018-11-05T06:20:24.559Z,96.10
2018-11-05T06:22:52.313Z,95.70
2018-11-05T06:25:20.141Z,95.20
2018-11-05T06:27:47.921Z,95.20
2018-11-05T06:30:18.431Z,95.10
2018-11-05T06:32:47.026Z,95.10
2018-11-05T06:35:15.411Z,94.90
2018-11-05T06:37:44.049Z,94.80
2018-11-05T06:40:13.657Z,94.80
2018-11-05T06:42:41.965Z,94.90
2018-11-05T06:45:12.012Z,95.00
2018-11-05T06:47:41.026Z,95.00
2018-11-05T06:50:16.948Z,94.90
2018-11-05T06:52:45.105Z,94.90
2018-11-05T06:55:13.592Z,94.80
2018-11-05T06:57:41.588Z,95.00
2018-11-05T07:00:12.033Z,94.90
2018-11-05T07:02:39.992Z,94.80
2018-11-05T07:05:07.733Z,94.60
2018-11-05T07:07:35.593Z,94.60
2018-11-05T07:10:03.847Z,94.20
2018-11-05T07:12:31.708Z,94.30
2018-11-05T07:14:59.493Z,94.30
2018-11-05T07:17:27.341Z,94.40
2018-11-05T07:19:55.453Z,94.20
2018-11-05T07:22:23.331Z,94.00
2018-11-05T07:24:51.128Z,94.00
2018-11-05T07:27:18.977Z,93.70
2018-11-05T07:29:46.845Z,93.70
2018-11-05T07:32:14.669Z,93.90
2018-11-05T07:34:42.446Z,93.70
2018-11-05T07:37:10.327Z,93.60
2018-11-05T07:39:38.084Z,93.90
2018-11-05T07:42:05.892Z,93.30
2018-11-05T07:44:33.982Z,92.40
2018-11-05T07:47:02.054Z,92.30
2018-11-05T07:49:29.859Z,92.10
2018-11-05T07:51:57.761Z,91.80
2018-11-05T07:54:25.617Z,91.70
2018-11-05T07:56:53.619Z,91.10
2018-11-05T07:59:21.377Z,91.00
2018-11-05T08:01:49.289Z,90.70
2018-11-05T08:04:17.057Z,90.10
2018-11-05T08:06:44.812Z,85.80
2018-11-05T08:09:12.792Z,84.20
2018-11-05T08:11:40.956Z,83.20
2018-11-05T08:14:09.882Z,82.00
2018-11-05T08:16:37.789Z,75.80
2018-11-05T08:19:06.081Z,73.50
2018-11-05T08:21:33.853Z,71.10
2018-11-05T08:24:01.595Z,69.50
2018-11-05T08:26:29.395Z,68.60
2018-11-05T08:28:57.202Z,66.20
2018-11-05T08:31:25.164Z,64.50
2018-11-05T08:33:52.939Z,60.50
2018-11-05T08:36:20.741Z,59.10
2018-11-05T08:38:48.488Z,59.00
2018-11-05T08:41:16.252Z,57.30
2018-11-05T08:43:44.560Z,57.70
2018-11-05T08:46:12.350Z,56.80
2018-11-05T08:48:40.169Z,56.50
2018-11-05T08:51:08.123Z,56.50
2018-11-05T08:53:35.905Z,57.30
2018-11-05T08:56:04.050Z,57.70
2018-11-05T08:58:32.213Z,57.10
2018-11-05T09:01:05.520Z,57.90
2018-11-05T09:03:33.457Z,57.50
2018-11-05T09:06:01.275Z,56.70
2018-11-05T09:08:29.121Z,54.90
2018-11-05T09:10:57.268Z,55.30
2018-11-05T09:13:24.875Z,55.60
2018-11-05T09:15:52.657Z,54.40
2018-11-05T09:18:20.409Z,53.10
2018-11-05T09:20:48.367Z,52.60
2018-11-05T09:23:16.080Z,50.40
2018-11-05T09:25:43.832Z,50.50
2018-11-05T09:28:11.654Z,50.80
2018-11-05T09:30:39.425Z,48.90
2018-11-05T09:33:07.237Z,48.00
2018-11-05T09:35:35.041Z,46.50
2018-11-05T09:38:02.827Z,44.30
2018-11-05T09:40:30.611Z,45.60
2018-11-05T09:42:58.762Z,44.30
2018-11-05T09:45:27.785Z,43.10
2018-11-05T09:47:55.651Z,42.60
2018-11-05T09:50:23.562Z,40.90
2018-11-05T09:52:51.349Z,37.00
2018-11-05T09:55:19.172Z,36.00
2018-11-05T09:57:46.928Z,37.20
2018-11-05T10:00:18.166Z,36.50
2018-11-05T10:02:51.715Z,35.30
2018-11-05T10:05:19.617Z,34.20
2018-11-05T10:07:47.255Z,35.30
2018-11-05T10:10:16.588Z,36.30
2018-11-05T10:12:44.361Z,36.60
2018-11-05T10:15:13.033Z,37.70
2018-11-05T10:17:40.980Z,37.30
2018-11-05T10:20:12.569Z,36.30
2018-11-05T10:22:40.477Z,35.90
2018-11-05T10:25:09.905Z,36.40
2018-11-05T10:27:37.925Z,36.80
2018-11-05T10:30:09.118Z,35.60
2018-11-05T10:32:36.968Z,35.60
2018-11-05T10:35:04.838Z,36.40
2018-11-05T10:37:32.660Z,36.30
2018-11-05T10:40:00.486Z,36.70
2018-11-05T10:42:28.285Z,37.30
2018-11-05T10:44:56.262Z,38.10
2018-11-05T10:47:24.055Z,36.80
2018-11-05T10:49:51.844Z,36.40
2018-11-05T10:52:19.656Z,37.00
2018-11-05T10:54:47.459Z,38.20
2018-11-05T10:57:15.213Z,39.70
2018-11-05T10:59:42.997Z,40.90
2018-11-05T11:04:22.046Z,42.00
2018-11-05T11:06:49.795Z,43.40
2018-11-05T11:09:17.569Z,44.40
2018-11-05T11:11:45.323Z,45.20
2018-11-05T11:14:13.108Z,45.60
2018-11-05T11:16:40.904Z,46.50
2018-11-05T11:19:08.691Z,47.50
2018-11-05T11:21:36.512Z,48.70
2018-11-05T11:24:04.686Z,49.10
2018-11-05T11:26:32.476Z,49.50
2018-11-05T11:29:00.319Z,50.20
2018-11-05T11:31:28.136Z,51.00
2018-11-05T11:33:55.977Z,51.90
2018-11-05T11:36:23.760Z,52.70
2018-11-05T11:38:51.541Z,54.00
2018-11-05T11:41:19.341Z,55.00
2018-11-05T11:43:47.134Z,55.80
2018-11-05T11:46:15.041Z,56.30
2018-11-05T11:48:42.873Z,57.10
2018-11-05T11:51:10.665Z,58.00
2018-11-05T11:53:38.460Z,58.60
2018-11-05T11:56:06.297Z,58.90
2018-11-05T11:58:34.090Z,59.00
2018-11-05T12:01:01.877Z,59.50
2018-11-05T12:03:29.637Z,59.70
2018-11-05T12:05:57.449Z,60.00
2018-11-05T12:08:25.283Z,60.70
2018-11-05T12:10:53.080Z,61.80
2018-11-05T12:13:20.862Z,62.70
2018-11-05T12:15:48.645Z,63.20
2018-11-05T12:18:16.493Z,64.10
2018-11-05T12:20:44.303Z,64.80
2018-11-05T12:23:12.052Z,65.60
2018-11-05T12:25:39.953Z,65.70
2018-11-05T12:28:07.789Z,66.20
2018-11-05T12:30:36.129Z,66.90
2018-11-05T12:33:04.071Z,67.80
2018-11-05T12:35:31.861Z,67.70
2018-11-05T12:37:59.716Z,69.10
2018-11-05T12:40:27.695Z,69.20
2018-11-05T12:42:55.481Z,69.40
2018-11-05T12:45:23.268Z,70.60
2018-11-05T12:47:51.037Z,71.10
2018-11-05T12:50:22.925Z,71.40
2018-11-05T12:52:51.781Z,72.10
2018-11-05T12:55:19.549Z,72.80
2018-11-05T12:57:47.645Z,72.70
2018-11-05T13:00:18.346Z,73.50
2018-11-05T13:02:51.756Z,73.80
2018-11-05T13:05:19.562Z,73.60
2018-11-05T13:07:47.657Z,74.30
2018-11-05T13:10:15.435Z,74.70
2018-11-05T13:12:43.223Z,74.80
2018-11-05T13:15:11.518Z,75.20
2018-11-05T13:17:39.886Z,75.20
2018-11-05T13:20:11.762Z,76.00
2018-11-05T13:22:39.791Z,76.10
2018-11-05T13:25:07.623Z,76.20
2018-11-05T13:27:35.431Z,76.00
2018-11-05T13:30:03.733Z,76.50
2018-11-05T13:32:31.537Z,76.40
2018-11-05T13:34:59.556Z,76.60
2018-11-05T13:37:27.670Z,77.00
2018-11-05T13:39:55.297Z,76.90
2018-11-05T13:42:23.114Z,77.40
2018-11-05T13:44:50.972Z,77.30
2018-11-05T13:47:19.489Z,77.70
2018-11-05T13:49:46.694Z,77.20
2018-11-05T13:52:14.584Z,77.00
2018-11-05T13:54:42.367Z,77.30
2018-11-05T13:57:10.077Z,77.20
2018-11-05T13:59:37.908Z,77.50
2018-11-05T14:02:05.758Z,77.40
2018-11-05T14:04:33.611Z,77.40
2018-11-05T14:07:01.397Z,77.30
2018-11-05T14:09:29.475Z,76.70
2018-11-05T14:11:57.316Z,76.80
2018-11-05T14:14:25.097Z,76.80
2018-11-05T14:16:52.941Z,77.00
2018-11-05T14:19:20.852Z,77.10
2018-11-05T14:21:48.732Z,75.70
2018-11-05T14:24:16.520Z,74.60
2018-11-05T14:26:44.337Z,74.40
2018-11-05T14:29:12.517Z,74.20
2018-11-05T14:31:39.953Z,74.20
2018-11-05T14:34:09.005Z,73.50
2018-11-05T14:36:36.995Z,72.40
2018-11-05T14:39:08.276Z,70.90
2018-11-05T14:41:36.065Z,69.50
2018-11-05T14:44:03.892Z,68.90
2018-11-05T14:46:31.676Z,68.60
2018-11-05T14:48:59.584Z,68.20
2018-11-05T14:51:27.401Z,68.40
2018-11-05T14:53:55.157Z,68.90
2018-11-05T14:56:22.937Z,69.50
2018-11-05T14:58:50.713Z,70.00
2018-11-05T15:01:18.502Z,70.40
2018-11-05T15:03:46.265Z,70.60
2018-11-05T15:06:14.089Z,70.70
2018-11-05T15:08:41.912Z,71.20
2018-11-05T15:11:09.689Z,70.90
2018-11-05T15:13:37.510Z,69.30
2018-11-05T15:16:05.525Z,68.30
2018-11-05T15:18:33.363Z,66.90
2018-11-05T15:21:01.254Z,64.50
2018-11-05T15:23:29.159Z,62.90
2018-11-05T15:25:57.009Z,62.40
2018-11-05T15:28:24.805Z,62.50
2018-11-05T15:30:52.593Z,62.30
2018-11-05T15:33:20.833Z,62.00
2018-11-05T15:35:49.246Z,61.10
2018-11-05T15:38:17.010Z,60.40
2018-11-05T15:40:44.793Z,60.20
2018-11-05T15:43:12.655Z,60.40
2018-11-05T15:45:40.470Z,60.90
2018-11-05T15:48:08.273Z,61.80
2018-11-05T15:50:36.049Z,62.80
2018-11-05T15:53:04.242Z,63.90
2018-11-05T15:55:31.857Z,65.00
2018-11-05T15:57:59.882Z,66.10
2018-11-05T16:00:27.673Z,66.70
2018-11-05T16:02:57.828Z,67.70
2018-11-05T16:05:25.666Z,68.70
2018-11-05T16:07:53.461Z,69.40
2018-11-05T16:10:21.309Z,70.50
2018-11-05T16:12:49.209Z,71.60
2018-11-05T16:15:16.973Z,72.60
2018-11-05T16:17:44.774Z,73.30
2018-11-05T16:20:14.070Z,74.40
2018-11-05T16:22:42.081Z,75.20
2018-11-05T16:25:09.974Z,76.00
2018-11-05T16:27:37.813Z,76.80
2018-11-05T16:30:08.227Z,77.40
2018-11-05T16:32:35.977Z,78.00
2018-11-05T16:35:04.094Z,79.00
2018-11-05T16:37:31.809Z,79.70
2018-11-05T16:39:59.813Z,80.60
2018-11-05T16:42:27.608Z,80.90
2018-11-05T16:44:55.489Z,83.10
2018-11-05T16:47:23.324Z,82.90
2018-11-05T16:49:51.089Z,83.20
2018-11-05T16:52:18.857Z,84.20
2018-11-05T16:54:46.679Z,84.90
2018-11-05T16:57:14.474Z,84.40
2018-11-05T16:59:42.310Z,85.50
2018-11-05T17:02:13.357Z,85.60
2018-11-05T17:04:41.329Z,85.80
2018-11-05T17:07:09.375Z,85.70
2018-11-05T17:09:37.148Z,87.00
2018-11-05T17:12:05.489Z,87.20
2018-11-05T17:14:33.249Z,87.80
2018-11-05T17:17:01.068Z,88.40
2018-11-05T17:19:29.218Z,88.80
2018-11-05T17:21:57.025Z,90.00
2018-11-05T17:24:24.833Z,89.90
2018-11-05T17:26:52.577Z,90.40
2018-11-05T17:29:20.383Z,90.10
2018-11-05T17:31:48.215Z,90.50
2018-11-05T17:34:16.054Z,90.60
2018-11-05T17:36:43.984Z,90.50
2018-11-05T17:39:12.790Z,90.90
2018-11-05T17:41:40.981Z,91.30
2018-11-05T17:44:10.954Z,91.40
2018-11-05T17:46:38.819Z,91.00
2018-11-05T17:49:07.740Z,91.10
2018-11-05T17:51:35.657Z,91.00
2018-11-05T17:54:03.532Z,91.20
2018-11-05T17:56:31.406Z,91.50
2018-11-05T17:58:59.386Z,91.90
2018-11-05T18:01:27.197Z,92.00
2018-11-05T18:03:55.044Z,92.10
2018-11-05T18:06:22.849Z,92.30
2018-11-05T18:08:50.726Z,92.10
2018-11-05T18:11:18.769Z,91.80
2018-11-05T18:13:46.532Z,91.60
2018-11-05T18:16:14.289Z,92.00
2018-11-05T18:18:42.339Z,92.40
2018-11-05T18:21:10.165Z,92.70
2018-11-05T18:23:38.083Z,92.70
2018-11-05T18:26:05.877Z,92.60
2018-11-05T18:28:33.690Z,92.50
2018-11-05T18:31:01.569Z,92.30
2018-11-05T18:33:29.299Z,92.70
2018-11-05T18:35:57.064Z,92.70
2018-11-05T18:38:24.849Z,93.50
2018-11-05T18:40:52.641Z,93.00
2018-11-05T18:43:20.452Z,92.80
2018-11-05T18:45:48.384Z,93.10
2018-11-05T18:48:16.713Z,93.60
2018-11-05T18:50:44.513Z,93.40
2018-11-05T18:53:12.262Z,93.50
2018-11-05T18:55:40.068Z,93.40
2018-11-05T18:58:07.909Z,92.80
2018-11-05T19:00:35.728Z,92.70
2018-11-05T19:03:03.672Z,92.70
2018-11-05T19:05:31.522Z,92.70
2018-11-05T19:07:59.503Z,92.30
2018-11-05T19:10:27.300Z,92.10
2018-11-05T19:12:55.057Z,91.80
2018-11-05T19:15:22.829Z,91.60
2018-11-05T19:17:50.848Z,91.40
2018-11-05T19:20:18.736Z,91.20
2018-11-05T19:22:46.738Z,91.30
2018-11-05T19:25:15.142Z,90.60
2018-11-05T19:27:43.677Z,90.80
2018-11-05T19:30:26.489Z,91.10
2018-11-05T19:32:54.323Z,91.30
2018-11-05T19:35:22.190Z,91.50
2018-11-05T19:37:50.061Z,91.40
2018-11-05T19:40:18.409Z,91.30
2018-11-05T19:42:46.982Z,91.20
2018-11-05T19:45:16.408Z,91.10
2018-11-05T19:47:44.347Z,90.70
2018-11-05T19:50:15.482Z,90.60
2018-11-05T19:52:44.001Z,90.30
2018-11-05T19:55:12.858Z,90.10
2018-11-05T19:57:41.523Z,90.00
2018-11-05T20:00:15.380Z,88.90
2018-11-05T20:02:43.447Z,87.80
2018-11-05T20:05:11.457Z,87.00
2018-11-05T20:07:39.324Z,85.10
2018-11-05T20:10:07.744Z,84.50
2018-11-05T20:12:35.591Z,84.20
2018-11-05T20:15:03.562Z,83.40
2018-11-05T20:17:31.910Z,82.90
2018-11-05T20:19:59.997Z,81.90
2018-11-05T20:22:27.883Z,81.40
2018-11-05T20:24:55.590Z,79.00
2018-11-05T20:27:23.409Z,78.40
2018-11-05T20:29:51.208Z,78.50
2018-11-05T20:32:19.477Z,77.80
2018-11-05T20:34:46.809Z,76.30
2018-11-05T20:37:14.593Z,76.50
2018-11-05T20:39:42.444Z,76.20
2018-11-05T20:42:10.191Z,74.80
2018-11-05T20:44:37.989Z,75.50
2018-11-05T20:47:06.550Z,74.30
2018-11-05T20:49:34.380Z,74.50
2018-11-05T20:52:02.204Z,74.80
2018-11-05T20:54:30.093Z,75.10
2018-11-05T20:56:57.913Z,75.60
2018-11-05T20:59:25.696Z,75.30
2018-11-05T21:01:53.776Z,75.50
2018-11-05T21:04:21.549Z,75.00
2018-11-05T21:06:49.300Z,75.50
2018-11-05T21:09:17.118Z,74.40
2018-11-05T21:11:44.893Z,74.80
2018-11-05T21:14:12.674Z,74.70
2018-11-05T21:16:40.524Z,73.90
2018-11-05T21:19:08.271Z,73.00
2018-11-05T21:21:36.168Z,72.60
2018-11-05T21:24:04.131Z,71.80
2018-11-05T21:26:32.216Z,71.60
2018-11-05T21:29:03.653Z,72.10
2018-11-05T21:31:31.817Z,71.20
2018-11-05T21:36:27.552Z,70.60
2018-11-05T21:38:55.332Z,70.60
2018-11-05T21:41:23.152Z,70.10
2018-11-05T21:43:50.961Z,69.40
2018-11-05T21:46:18.828Z,68.90
2018-11-05T21:48:46.625Z,67.90
2018-11-05T21:51:14.617Z,67.50
2018-11-05T21:53:42.480Z,66.70
2018-11-05T21:56:10.329Z,66.80
2018-11-05T21:58:38.179Z,66.20
2018-11-05T22:01:06.049Z,66.80
2018-11-05T22:03:34.418Z,67.10
2018-11-05T22:06:02.236Z,67.10
2018-11-05T22:08:30.126Z,67.50
2018-11-05T22:10:57.928Z,67.10
2018-11-05T22:13:25.725Z,67.30
2018-11-05T22:15:53.595Z,65.70
2018-11-05T22:18:21.358Z,64.60
2018-11-05T22:20:49.177Z,65.20
2018-11-05T22:23:16.968Z,65.50
2018-11-05T22:25:44.788Z,64.90
2018-11-05T22:28:12.660Z,64.50
2018-11-05T22:30:40.541Z,64.90
2018-11-05T22:33:08.740Z,65.00
2018-11-05T22:35:36.699Z,64.40
2018-11-05T22:38:04.752Z,65.20
2018-11-05T22:40:32.712Z,66.00
2018-11-05T22:43:00.725Z,66.60
2018-11-05T22:45:28.528Z,66.70
2018-11-05T22:47:56.719Z,67.20
2018-11-05T22:50:24.683Z,66.70
2018-11-05T22:52:52.505Z,66.40
2018-11-05T22:55:20.325Z,66.30
2018-11-05T22:57:48.211Z,66.80
2018-11-05T23:00:22.443Z,65.90
2018-11-05T23:02:55.923Z,66.10
2018-11-05T23:05:24.325Z,65.70
2018-11-05T23:07:53.228Z,66.20
2018-11-05T23:10:21.457Z,66.90
2018-11-05T23:12:49.321Z,66.50
2018-11-05T23:15:17.548Z,66.10
2018-11-05T23:17:45.646Z,65.30
2018-11-05T23:20:13.458Z,65.30
2018-11-05T23:22:41.944Z,66.10
2018-11-05T23:25:09.890Z,65.40
2018-11-05T23:27:37.777Z,65.40
2018-11-05T23:30:07.870Z,64.90
2018-11-05T23:32:35.927Z,65.10
2018-11-05T23:35:03.829Z,64.50
2018-11-05T23:37:31.713Z,64.30
2018-11-05T23:39:59.572Z,64.90
2018-11-05T23:42:27.577Z,64.50
2018-11-05T23:44:55.392Z,64.10
2018-11-05T23:47:26.839Z,64.60
2018-11-05T23:49:56.492Z,64.40
2018-11-05T23:52:25.182Z,63.90
2018-11-05T23:54:53.069Z,63.20
2018-11-05T23:57:21.317Z,63.90
2018-11-05T23:59:49.173Z,63.50
